createdAt,value
2023-02-23T00:00:21.458Z,1.00
2023-02-23T00:01:27.029Z,0.90
2023-02-23T00:02:30.102Z,0.90
2023-02-23T00:03:33.756Z,0.90
2023-02-23T00:04:36.765Z,1.00
2023-02-23T00:05:40.563Z,1.00
2023-02-23T00:06:42.930Z,1.00
2023-02-23T00:07:47.755Z,1.00
2023-02-23T00:08:52.408Z,1.10
2023-02-23T00:09:58.874Z,1.10
2023-02-23T00:11:01.685Z,1.10
2023-02-23T00:12:08.799Z,1.30
2023-02-23T00:13:11.716Z,1.20
2023-02-23T00:14:15.658Z,1.10
2023-02-23T00:15:19.172Z,1.20
2023-02-23T00:16:25.634Z,1.10
2023-02-23T00:17:31.793Z,1.20
2023-02-23T00:18:45.183Z,1.10
2023-02-23T00:19:49.386Z,1.10
2023-02-23T00:20:59.801Z,1.20
2023-02-23T00:22:02.752Z,1.10
2023-02-23T00:23:06.712Z,1.10
2023-02-23T00:24:15.489Z,1.10
2023-02-23T00:25:20.120Z,1.10
2023-02-23T00:26:24.688Z,1.10
2023-02-23T00:27:28.712Z,1.10
2023-02-23T00:28:33.240Z,1.10
2023-02-23T00:29:40.507Z,1.10
2023-02-23T00:30:43.236Z,1.10
2023-02-23T00:31:47.965Z,1.00
2023-02-23T00:32:52.983Z,1.10
2023-02-23T00:33:58.379Z,1.10
2023-02-23T00:35:01.352Z,1.10
2023-02-23T00:36:06.683Z,1.10
2023-02-23T00:37:09.102Z,1.10
2023-02-23T00:38:12.960Z,1.10
2023-02-23T00:39:21.960Z,1.10
2023-02-23T00:40:26.706Z,1.20
2023-02-23T00:41:31.995Z,1.30
2023-02-23T00:42:35.923Z,1.20
2023-02-23T00:43:47.934Z,1.20
2023-02-23T00:44:52.175Z,1.20
2023-02-23T00:45:55.930Z,1.30
2023-02-23T00:46:59.603Z,1.30
2023-02-23T00:48:03.825Z,1.30
2023-02-23T00:49:07.972Z,1.30
2023-02-23T00:50:13.565Z,1.30
2023-02-23T00:51:19.191Z,1.30
2023-02-23T00:52:21.644Z,1.30
2023-02-23T00:53:27.694Z,1.20
2023-02-23T00:54:32.088Z,1.20
2023-02-23T00:55:35.697Z,1.20
2023-02-23T00:56:40.579Z,1.20
2023-02-23T00:57:44.119Z,1.30
2023-02-23T00:58:46.653Z,1.20
2023-02-23T00:59:50.763Z,1.20
2023-02-23T01:00:54.722Z,1.20
2023-02-23T01:01:58.751Z,1.20
2023-02-23T01:03:01.897Z,1.20
2023-02-23T01:04:06.649Z,1.20
2023-02-23T01:05:11.380Z,1.20
2023-02-23T01:06:17.180Z,1.20
2023-02-23T01:07:25.634Z,1.20
2023-02-23T01:08:33.926Z,1.20
2023-02-23T01:09:38.343Z,1.20
2023-02-23T01:10:43.467Z,1.30
2023-02-23T01:11:47.567Z,1.20
2023-02-23T01:12:53.791Z,1.10
2023-02-23T01:14:00.478Z,1.10
2023-02-23T01:15:04.487Z,1.00
2023-02-23T01:16:08.926Z,1.00
2023-02-23T01:17:12.414Z,1.00
2023-02-23T01:18:15.843Z,0.90
2023-02-23T01:19:19.747Z,0.80
2023-02-23T01:20:26.688Z,0.80
2023-02-23T01:21:35.254Z,0.80
2023-02-23T01:22:37.675Z,0.80
2023-02-23T01:23:41.934Z,0.80
2023-02-23T01:24:47.049Z,0.80
2023-02-23T01:25:50.644Z,0.80
2023-02-23T01:26:54.348Z,0.90
2023-02-23T01:27:58.037Z,0.90
2023-02-23T01:29:04.248Z,1.00
2023-02-23T01:30:10.247Z,0.90
2023-02-23T01:31:13.124Z,0.90
2023-02-23T01:32:17.427Z,0.90
2023-02-23T01:33:20.164Z,0.90
2023-02-23T01:34:24.169Z,0.80
2023-02-23T01:35:26.957Z,0.80
2023-02-23T01:36:34.106Z,0.80
2023-02-23T01:37:40.977Z,0.90
2023-02-23T01:38:45.391Z,0.90
2023-02-23T01:39:50.125Z,0.90
2023-02-23T01:40:54.146Z,0.90
2023-02-23T01:41:58.990Z,0.80
2023-02-23T01:43:13.511Z,0.80
2023-02-23T01:44:53.132Z,0.80
2023-02-23T01:45:58.871Z,0.70
2023-02-23T01:47:01.284Z,0.70
2023-02-23T01:48:12.517Z,0.80
2023-02-23T01:49:20.410Z,0.60
2023-02-23T01:50:26.918Z,0.60
2023-02-23T01:51:34.921Z,0.60
2023-02-23T01:52:40.096Z,0.60
2023-02-23T01:53:49.351Z,0.60
2023-02-23T01:54:56.635Z,0.60
2023-02-23T01:56:04.441Z,0.50
2023-02-23T01:57:12.457Z,0.60
2023-02-23T01:58:21.193Z,0.60
2023-02-23T01:59:28.640Z,0.50
2023-02-23T02:00:36.963Z,0.50
2023-02-23T02:01:45.588Z,0.60
2023-02-23T02:02:48.931Z,0.60
2023-02-23T02:03:58.869Z,0.50
2023-02-23T02:05:06.708Z,0.50
2023-02-23T02:06:14.848Z,0.50
2023-02-23T02:07:22.948Z,0.50
2023-02-23T02:08:29.010Z,0.60
2023-02-23T02:09:37.916Z,0.60
2023-02-23T02:10:47.022Z,0.60
2023-02-23T02:11:54.863Z,0.50
2023-02-23T02:12:59.947Z,0.60
2023-02-23T02:14:13.138Z,0.60
2023-02-23T02:15:18.196Z,0.60
2023-02-23T02:16:46.916Z,0.70
2023-02-23T02:18:04.112Z,0.60
2023-02-23T02:19:58.869Z,0.70
2023-02-23T02:21:52.109Z,0.70
2023-02-23T02:23:27.819Z,0.70
2023-02-23T02:25:12.855Z,0.70
2023-02-23T02:26:27.099Z,0.80
2023-02-23T02:28:04.296Z,0.80
2023-02-23T02:29:41.750Z,0.80
2023-02-23T02:31:42.641Z,0.80
2023-02-23T02:33:22.894Z,0.70
2023-02-23T02:35:12.492Z,0.80
2023-02-23T02:36:42.463Z,0.70
2023-02-23T02:38:05.499Z,0.70
2023-02-23T02:39:24.295Z,0.70
2023-02-23T02:40:38.248Z,0.70
2023-02-23T02:41:53.605Z,0.90
2023-02-23T02:43:08.911Z,0.70
2023-02-23T02:44:19.917Z,0.60
2023-02-23T02:45:32.386Z,0.70
2023-02-23T02:46:40.502Z,0.70
2023-02-23T02:47:56.717Z,0.80
2023-02-23T02:49:09.304Z,0.70
2023-02-23T02:50:19.805Z,0.70
2023-02-23T02:51:28.656Z,0.70
2023-02-23T02:52:37.536Z,0.70
2023-02-23T02:53:52.424Z,0.70
2023-02-23T02:55:03.399Z,0.70
2023-02-23T02:56:09.311Z,0.80
2023-02-23T02:57:14.316Z,0.80
2023-02-23T02:58:19.795Z,0.80
2023-02-23T02:59:40.401Z,0.80
2023-02-23T03:01:05.617Z,0.70
2023-02-23T03:02:32.210Z,0.70
2023-02-23T03:03:59.260Z,0.70
2023-02-23T03:05:20.393Z,0.80
2023-02-23T03:06:45.936Z,0.80
2023-02-23T03:08:18.149Z,0.80
2023-02-23T03:09:55.380Z,0.70
2023-02-23T03:11:24.486Z,0.70
2023-02-23T03:12:58.001Z,0.60
2023-02-23T03:14:36.112Z,0.60
2023-02-23T03:16:11.988Z,0.70
2023-02-23T03:17:46.875Z,0.70
2023-02-23T03:19:27.511Z,0.70
2023-02-23T03:21:01.169Z,0.80
2023-02-23T03:22:37.407Z,0.90
2023-02-23T03:24:10.447Z,0.70
2023-02-23T03:25:40.228Z,0.80
2023-02-23T03:27:11.537Z,0.80
2023-02-23T03:28:39.141Z,0.90
2023-02-23T03:30:12.585Z,0.90
2023-02-23T03:31:57.668Z,1.00
2023-02-23T03:33:28.831Z,0.90
2023-02-23T03:35:00.273Z,0.90
2023-02-23T03:36:28.933Z,0.90
2023-02-23T03:37:57.331Z,0.90
2023-02-23T03:39:29.718Z,0.80
2023-02-23T03:40:57.253Z,0.80
2023-02-23T03:42:24.974Z,0.90
2023-02-23T03:43:53.337Z,0.90
2023-02-23T03:45:18.209Z,0.90
2023-02-23T03:46:42.434Z,1.00
2023-02-23T03:48:05.989Z,1.10
2023-02-23T03:49:32.276Z,1.10
2023-02-23T03:50:59.349Z,1.10
2023-02-23T03:52:28.556Z,1.00
2023-02-23T03:53:58.257Z,1.10
2023-02-23T03:55:25.982Z,1.10
2023-02-23T03:56:54.399Z,1.10
2023-02-23T03:58:21.306Z,1.10
2023-02-23T03:59:48.855Z,1.20
2023-02-23T04:01:15.246Z,1.20
2023-02-23T04:02:39.281Z,1.20
2023-02-23T04:04:05.146Z,1.20
2023-02-23T04:05:35.302Z,1.10
2023-02-23T04:07:03.246Z,1.00
2023-02-23T04:08:31.203Z,0.90
2023-02-23T04:09:53.246Z,0.90
2023-02-23T04:11:30.969Z,1.00
2023-02-23T04:13:04.878Z,1.00
2023-02-23T04:14:16.032Z,0.90
2023-02-23T04:15:26.904Z,0.90
2023-02-23T04:16:32.475Z,0.90
2023-02-23T04:17:36.965Z,0.90
2023-02-23T04:18:40.342Z,1.00
2023-02-23T04:19:50.688Z,1.00
2023-02-23T04:20:53.753Z,1.00
2023-02-23T04:21:58.075Z,1.00
2023-02-23T04:23:00.907Z,1.00
2023-02-23T04:24:04.870Z,1.10
2023-02-23T04:25:09.067Z,1.10
2023-02-23T04:26:12.895Z,1.10
2023-02-23T04:27:15.954Z,1.20
2023-02-23T04:28:21.266Z,1.10
2023-02-23T04:29:26.871Z,1.10
2023-02-23T04:30:30.490Z,1.00
2023-02-23T04:31:32.913Z,1.20
2023-02-23T04:32:36.710Z,1.20
2023-02-23T04:33:40.836Z,1.20
2023-02-23T04:34:44.755Z,1.10
2023-02-23T04:35:47.497Z,1.10
2023-02-23T04:36:51.441Z,1.00
2023-02-23T04:37:54.100Z,1.00
2023-02-23T04:38:57.809Z,1.00
2023-02-23T04:40:00.588Z,1.00
2023-02-23T04:41:03.970Z,1.00
2023-02-23T04:42:06.989Z,1.00
2023-02-23T04:43:13.146Z,1.10
2023-02-23T04:44:17.470Z,1.00
2023-02-23T04:45:22.220Z,1.00
2023-02-23T04:46:24.892Z,1.10
2023-02-23T04:47:28.798Z,1.00
2023-02-23T04:48:31.547Z,1.10
2023-02-23T04:49:37.875Z,1.10
2023-02-23T04:50:40.705Z,1.10
2023-02-23T04:51:44.094Z,1.10
2023-02-23T04:52:47.647Z,1.10
2023-02-23T04:53:51.738Z,1.00
2023-02-23T04:54:54.367Z,1.00
2023-02-23T04:55:58.343Z,1.00
2023-02-23T04:57:00.786Z,1.00
2023-02-23T04:58:05.074Z,1.00
2023-02-23T04:59:07.785Z,1.00
2023-02-23T05:00:14.583Z,1.00
2023-02-23T05:01:17.613Z,0.90
2023-02-23T05:02:22.570Z,0.90
2023-02-23T05:03:25.353Z,0.80
2023-02-23T05:04:29.380Z,0.80
2023-02-23T05:05:32.551Z,0.70
2023-02-23T05:06:36.061Z,0.70
2023-02-23T05:07:39.664Z,0.60
2023-02-23T05:08:43.482Z,0.60
2023-02-23T05:09:45.820Z,0.60
2023-02-23T05:10:49.845Z,0.50
2023-02-23T05:11:52.910Z,0.70
2023-02-23T05:12:57.067Z,0.60
2023-02-23T05:14:02.821Z,0.70
2023-02-23T05:15:07.533Z,0.70
2023-02-23T05:16:13.896Z,0.70
2023-02-23T05:17:17.660Z,0.80
2023-02-23T05:18:22.287Z,0.80
2023-02-23T05:19:25.196Z,0.90
2023-02-23T05:20:31.106Z,0.90
2023-02-23T05:21:33.645Z,0.90
2023-02-23T05:22:37.176Z,0.90
2023-02-23T05:23:39.874Z,0.90
2023-02-23T05:24:44.180Z,0.90
2023-02-23T05:25:46.840Z,1.00
2023-02-23T05:26:50.675Z,0.80
2023-02-23T05:27:53.065Z,0.90
2023-02-23T05:28:57.286Z,0.90
2023-02-23T05:30:00.591Z,0.90
2023-02-23T05:31:05.451Z,0.90
2023-02-23T05:32:09.438Z,0.90
2023-02-23T05:33:15.451Z,0.90
2023-02-23T05:34:19.059Z,0.80
2023-02-23T05:35:22.954Z,0.80
2023-02-23T05:36:25.545Z,0.90
2023-02-23T05:37:29.164Z,0.80
2023-02-23T05:38:32.042Z,0.90
2023-02-23T05:39:38.502Z,0.80
2023-02-23T05:40:41.772Z,0.90
2023-02-23T05:41:45.470Z,0.90
2023-02-23T05:42:48.173Z,1.10
2023-02-23T05:43:53.797Z,1.00
2023-02-23T05:44:56.329Z,1.10
2023-02-23T05:46:01.620Z,1.00
2023-02-23T05:47:05.456Z,1.00
2023-02-23T05:48:10.194Z,1.00
2023-02-23T05:49:14.506Z,1.00
2023-02-23T05:50:18.098Z,1.00
2023-02-23T05:51:21.105Z,0.90
2023-02-23T05:52:25.082Z,0.90
2023-02-23T05:53:27.696Z,0.80
2023-02-23T05:54:31.753Z,0.90
2023-02-23T05:55:36.508Z,0.90
2023-02-23T05:56:39.966Z,1.00
2023-02-23T05:57:45.653Z,1.00
2023-02-23T05:58:49.679Z,1.00
2023-02-23T05:59:52.509Z,1.00
2023-02-23T06:00:56.540Z,1.00
2023-02-23T06:01:59.903Z,1.00
2023-02-23T06:03:03.715Z,0.90
2023-02-23T06:04:08.209Z,0.90
2023-02-23T06:05:14.432Z,0.80
2023-02-23T06:06:18.127Z,0.80
2023-02-23T06:07:21.759Z,0.90
2023-02-23T06:08:26.211Z,0.80
2023-02-23T06:09:29.872Z,0.80
2023-02-23T06:10:33.109Z,0.90
2023-02-23T06:11:36.864Z,0.90
2023-02-23T06:12:39.721Z,1.00
2023-02-23T06:13:43.361Z,1.20
2023-02-23T06:14:46.228Z,1.10
2023-02-23T06:15:50.862Z,1.10
2023-02-23T06:16:54.674Z,1.10
2023-02-23T06:17:57.389Z,1.10
2023-02-23T06:19:01.490Z,1.10
2023-02-23T06:20:07.641Z,1.20
2023-02-23T06:21:11.680Z,1.10
2023-02-23T06:22:14.575Z,1.10
2023-02-23T06:23:18.178Z,1.20
2023-02-23T06:24:21.656Z,1.10
2023-02-23T06:25:25.559Z,1.10
2023-02-23T06:26:28.814Z,1.10
2023-02-23T06:27:33.200Z,1.10
2023-02-23T06:28:36.755Z,1.10
2023-02-23T06:29:40.221Z,1.10
2023-02-23T06:30:42.781Z,1.00
2023-02-23T06:31:48.151Z,1.00
2023-02-23T06:32:50.752Z,1.00
2023-02-23T06:33:58.417Z,1.10
2023-02-23T06:35:01.788Z,1.10
2023-02-23T06:36:07.831Z,1.10
2023-02-23T06:37:10.640Z,1.20
2023-02-23T06:38:14.532Z,1.20
2023-02-23T06:39:17.989Z,1.20
2023-02-23T06:40:21.042Z,1.30
2023-02-23T06:41:24.959Z,1.40
2023-02-23T06:42:27.686Z,1.40
2023-02-23T06:43:31.221Z,1.30
2023-02-23T06:44:35.914Z,1.30
2023-02-23T06:45:40.937Z,1.40
2023-02-23T06:46:43.904Z,1.30
2023-02-23T06:47:47.888Z,1.30
2023-02-23T06:48:50.505Z,1.40
2023-02-23T06:49:55.053Z,1.40
2023-02-23T06:51:00.076Z,1.40
2023-02-23T06:52:06.365Z,1.30
2023-02-23T06:53:09.011Z,1.30
2023-02-23T06:54:12.771Z,1.20
2023-02-23T06:55:16.970Z,1.20
2023-02-23T06:56:20.796Z,1.30
2023-02-23T06:57:23.714Z,1.30
2023-02-23T06:58:27.917Z,1.40
2023-02-23T06:59:30.600Z,1.30
2023-02-23T07:00:34.755Z,1.30
2023-02-23T07:01:37.186Z,1.20
2023-02-23T07:02:40.946Z,1.30
2023-02-23T07:03:45.095Z,1.40
2023-02-23T07:04:48.314Z,1.40
2023-02-23T07:05:52.479Z,1.30
2023-02-23T07:06:54.885Z,1.40
2023-02-23T07:07:59.828Z,1.50
2023-02-23T07:09:03.598Z,1.60
2023-02-23T07:10:07.563Z,1.70
2023-02-23T07:11:13.672Z,1.80
2023-02-23T07:12:16.123Z,1.80
2023-02-23T07:13:20.513Z,1.90
2023-02-23T07:14:27.037Z,2.00
2023-02-23T07:15:30.891Z,2.00
2023-02-23T07:16:33.488Z,2.00
2023-02-23T07:17:37.749Z,2.00
2023-02-23T07:18:40.397Z,2.00
2023-02-23T07:19:44.142Z,2.00
2023-02-23T07:20:46.765Z,2.10
2023-02-23T07:21:50.396Z,2.10
2023-02-23T07:22:57.423Z,2.10
2023-02-23T07:24:03.451Z,2.10
2023-02-23T07:25:08.673Z,2.20
2023-02-23T07:26:16.288Z,2.20
2023-02-23T07:27:19.999Z,2.20
2023-02-23T07:28:23.189Z,2.30
2023-02-23T07:29:28.294Z,2.30
2023-02-23T07:30:31.953Z,2.30
2023-02-23T07:31:34.716Z,2.30
2023-02-23T07:32:38.645Z,2.20
2023-02-23T07:33:41.322Z,2.10
2023-02-23T07:34:46.124Z,2.10
2023-02-23T07:35:51.610Z,2.10
2023-02-23T07:36:54.466Z,2.10
2023-02-23T07:37:58.600Z,2.20
2023-02-23T07:39:03.615Z,2.30
2023-02-23T07:40:07.475Z,2.30
2023-02-23T07:41:18.725Z,2.20
2023-02-23T07:42:21.532Z,2.20
2023-02-23T07:43:25.518Z,2.20
2023-02-23T07:44:28.091Z,2.30
2023-02-23T07:45:31.823Z,2.30
2023-02-23T07:46:34.576Z,2.10
2023-02-23T07:47:39.618Z,2.10
2023-02-23T07:48:45.342Z,2.10
2023-02-23T07:49:48.847Z,2.20
2023-02-23T07:50:51.900Z,2.30
2023-02-23T07:51:55.633Z,2.40
2023-02-23T07:53:00.317Z,2.50
2023-02-23T07:54:05.744Z,2.60
2023-02-23T07:55:11.500Z,2.80
2023-02-23T07:56:14.424Z,2.80
2023-02-23T07:57:19.142Z,2.80
2023-02-23T07:58:22.376Z,2.80
2023-02-23T07:59:26.506Z,2.90
2023-02-23T08:00:29.372Z,2.90
2023-02-23T08:01:35.533Z,2.90
2023-02-23T08:02:39.318Z,2.90
2023-02-23T08:03:41.808Z,2.90
2023-02-23T08:04:46.412Z,2.90
2023-02-23T08:05:49.023Z,2.90
2023-02-23T08:06:52.974Z,2.90
2023-02-23T08:07:56.379Z,3.00
2023-02-23T08:09:01.673Z,3.20
2023-02-23T08:10:07.391Z,3.40
2023-02-23T08:11:10.980Z,3.60
2023-02-23T08:12:15.717Z,3.70
2023-02-23T08:13:19.843Z,3.70
2023-02-23T08:14:23.718Z,3.70
2023-02-23T08:15:28.586Z,3.70
2023-02-23T08:16:32.797Z,3.60
2023-02-23T08:17:36.850Z,3.60
2023-02-23T08:18:39.785Z,3.60
2023-02-23T08:19:45.645Z,3.60
2023-02-23T08:20:48.764Z,3.50
2023-02-23T08:21:52.782Z,3.60
2023-02-23T08:22:57.133Z,3.60
2023-02-23T08:24:01.391Z,3.70
2023-02-23T08:25:06.647Z,3.80
2023-02-23T08:26:10.554Z,3.70
2023-02-23T08:27:14.361Z,3.80
2023-02-23T08:28:18.047Z,3.90
2023-02-23T08:29:22.350Z,4.00
2023-02-23T08:30:26.448Z,3.90
2023-02-23T08:31:30.494Z,3.90
2023-02-23T08:32:35.689Z,3.80
2023-02-23T08:33:39.928Z,3.70
2023-02-23T08:34:44.942Z,3.80
2023-02-23T08:35:50.636Z,3.70
2023-02-23T08:36:54.235Z,3.70
2023-02-23T08:37:59.216Z,3.60
2023-02-23T08:39:02.498Z,3.50
2023-02-23T08:40:08.524Z,3.50
2023-02-23T08:41:11.914Z,3.50
2023-02-23T08:42:15.024Z,3.60
2023-02-23T08:43:18.749Z,3.70
2023-02-23T08:44:22.840Z,3.90
2023-02-23T08:45:25.361Z,4.00
2023-02-23T08:46:29.053Z,4.20
2023-02-23T08:47:34.702Z,4.30
2023-02-23T08:48:39.603Z,4.20
2023-02-23T08:49:43.383Z,4.30
2023-02-23T08:50:49.881Z,4.40
2023-02-23T08:51:53.032Z,4.50
2023-02-23T08:52:56.762Z,4.50
2023-02-23T08:54:00.534Z,4.50
2023-02-23T08:55:04.509Z,4.40
2023-02-23T08:56:10.375Z,4.40
2023-02-23T08:57:17.128Z,4.40
2023-02-23T08:58:20.217Z,4.40
2023-02-23T08:59:23.736Z,4.30
2023-02-23T09:00:27.797Z,4.30
2023-02-23T09:01:33.249Z,4.20
2023-02-23T09:02:37.376Z,4.30
2023-02-23T09:03:41.511Z,4.20
2023-02-23T09:04:46.689Z,4.20
2023-02-23T09:05:50.562Z,4.20
2023-02-23T09:06:54.549Z,4.20
2023-02-23T09:08:02.466Z,4.30
2023-02-23T09:09:06.171Z,4.30
2023-02-23T09:10:12.812Z,4.40
2023-02-23T09:11:18.384Z,4.50
2023-02-23T09:12:21.114Z,4.70
2023-02-23T09:13:25.393Z,5.00
2023-02-23T09:14:28.490Z,5.10
2023-02-23T09:15:32.522Z,5.10
2023-02-23T09:16:36.867Z,5.10
2023-02-23T09:17:53.471Z,5.20
2023-02-23T09:19:01.475Z,5.20
2023-02-23T09:20:05.428Z,5.40
2023-02-23T09:21:19.734Z,5.70
2023-02-23T09:22:22.399Z,5.80
2023-02-23T09:23:29.992Z,5.90
2023-02-23T09:24:33.499Z,5.90
2023-02-23T09:25:44.257Z,6.00
2023-02-23T09:26:49.485Z,6.10
2023-02-23T09:27:56.398Z,6.20
2023-02-23T09:29:03.336Z,6.40
2023-02-23T09:30:06.632Z,6.40
2023-02-23T09:31:12.101Z,6.50
2023-02-23T09:32:14.874Z,6.50
2023-02-23T09:33:18.412Z,6.40
2023-02-23T09:34:22.093Z,6.60
2023-02-23T09:35:26.498Z,6.60
2023-02-23T09:36:33.399Z,6.70
2023-02-23T09:37:36.537Z,6.70
2023-02-23T09:38:40.533Z,6.60
2023-02-23T09:39:45.916Z,6.40
2023-02-23T09:40:53.150Z,6.30
2023-02-23T09:42:11.926Z,6.00
2023-02-23T09:43:21.591Z,6.00
2023-02-23T09:44:41.144Z,6.10
2023-02-23T09:45:50.870Z,6.90
2023-02-23T09:47:11.569Z,7.20
2023-02-23T09:48:20.033Z,7.00
2023-02-23T09:49:29.991Z,7.00
2023-02-23T09:50:38.734Z,6.90
2023-02-23T09:51:48.679Z,6.70
2023-02-23T09:52:58.330Z,6.60
2023-02-23T09:54:05.430Z,6.50
2023-02-23T09:55:12.738Z,6.30
2023-02-23T09:56:26.134Z,6.10
2023-02-23T09:57:39.412Z,6.00
2023-02-23T09:58:43.541Z,5.90
2023-02-23T09:59:46.490Z,5.80
2023-02-23T10:01:05.120Z,5.60
2023-02-23T10:02:25.373Z,5.60
2023-02-23T10:03:35.976Z,5.70
2023-02-23T10:04:45.274Z,5.60
2023-02-23T10:05:56.235Z,5.70
2023-02-23T10:07:06.311Z,5.80
2023-02-23T10:08:27.270Z,5.80
2023-02-23T10:09:55.662Z,5.90
2023-02-23T10:11:13.151Z,6.00
2023-02-23T10:12:27.508Z,6.20
2023-02-23T10:13:47.942Z,6.10
2023-02-23T10:15:07.766Z,6.00
2023-02-23T10:16:20.541Z,5.90
2023-02-23T10:17:37.657Z,5.80
2023-02-23T10:18:51.530Z,5.80
2023-02-23T10:20:03.802Z,5.80
2023-02-23T10:21:12.175Z,5.90
2023-02-23T10:22:18.069Z,6.00
2023-02-23T10:23:31.327Z,6.00
2023-02-23T10:24:41.672Z,6.10
2023-02-23T10:25:51.181Z,6.10
2023-02-23T10:26:56.755Z,6.20
2023-02-23T10:28:03.817Z,6.20
2023-02-23T10:29:23.614Z,6.10
2023-02-23T10:30:30.613Z,6.00
2023-02-23T10:31:42.079Z,6.00
2023-02-23T10:32:53.540Z,6.00
2023-02-23T10:34:00.743Z,5.90
2023-02-23T10:35:13.297Z,5.90
2023-02-23T10:36:20.630Z,5.90
2023-02-23T10:37:25.988Z,5.90
2023-02-23T10:38:29.398Z,5.90
2023-02-23T10:39:35.349Z,6.00
2023-02-23T10:40:39.090Z,6.20
2023-02-23T10:41:43.403Z,6.20
2023-02-23T10:42:47.400Z,6.20
2023-02-23T10:43:50.089Z,6.20
2023-02-23T10:44:55.299Z,6.20
2023-02-23T10:45:59.750Z,6.30
2023-02-23T10:47:10.301Z,6.30
2023-02-23T10:48:20.069Z,6.30
2023-02-23T10:49:30.324Z,6.20
2023-02-23T10:50:37.069Z,6.30
2023-02-23T10:51:44.010Z,6.30
2023-02-23T10:52:49.541Z,6.40
2023-02-23T10:53:54.115Z,6.30
2023-02-23T10:54:56.740Z,6.40
2023-02-23T10:56:08.003Z,6.40
2023-02-23T10:57:14.539Z,6.40
2023-02-23T10:58:21.321Z,6.40
2023-02-23T10:59:28.792Z,6.40
2023-02-23T11:00:37.040Z,6.40
2023-02-23T11:02:01.988Z,6.40
2023-02-23T11:03:20.475Z,6.40
2023-02-23T11:04:26.743Z,6.40
2023-02-23T11:05:37.170Z,6.50
2023-02-23T11:06:44.622Z,6.50
2023-02-23T11:07:47.424Z,6.50
2023-02-23T11:08:53.137Z,6.50
2023-02-23T11:10:00.812Z,6.50
2023-02-23T11:11:20.649Z,6.60
2023-02-23T11:12:26.423Z,6.60
2023-02-23T11:13:36.526Z,6.50
2023-02-23T11:14:40.809Z,6.40
2023-02-23T11:15:50.691Z,6.40
2023-02-23T11:16:56.642Z,6.50
2023-02-23T11:18:01.118Z,6.50
2023-02-23T11:19:10.126Z,6.50
2023-02-23T11:20:28.166Z,6.50
2023-02-23T11:21:36.913Z,6.40
2023-02-23T11:22:42.758Z,6.30
2023-02-23T11:23:46.438Z,6.30
2023-02-23T11:24:49.833Z,6.30
2023-02-23T11:25:56.858Z,6.30
2023-02-23T11:27:07.034Z,6.30
2023-02-23T11:28:20.940Z,6.20
2023-02-23T11:29:35.423Z,6.10
2023-02-23T11:30:43.474Z,6.20
2023-02-23T11:31:55.726Z,6.20
2023-02-23T11:33:09.621Z,6.20
2023-02-23T11:34:24.508Z,6.10
2023-02-23T11:35:31.842Z,6.30
2023-02-23T11:36:36.961Z,6.40
2023-02-23T11:37:42.283Z,6.40
2023-02-23T11:38:47.565Z,6.40
2023-02-23T11:39:55.943Z,6.40
2023-02-23T11:41:00.851Z,6.30
2023-02-23T11:42:22.528Z,6.30
2023-02-23T11:43:25.032Z,6.30
2023-02-23T11:44:28.661Z,6.30
2023-02-23T11:45:39.644Z,6.30
2023-02-23T11:46:46.767Z,6.40
2023-02-23T11:47:55.858Z,6.40
2023-02-23T11:49:02.804Z,6.40
2023-02-23T11:50:08.594Z,6.50
2023-02-23T11:51:13.236Z,6.60
2023-02-23T11:52:21.159Z,6.50
2023-02-23T11:53:31.567Z,6.50
2023-02-23T11:54:38.607Z,6.40
2023-02-23T11:55:49.311Z,6.40
2023-02-23T11:56:55.442Z,6.50
2023-02-23T11:58:11.857Z,6.50
2023-02-23T11:59:22.728Z,6.60
2023-02-23T12:00:30.409Z,6.60
2023-02-23T12:01:45.700Z,6.70
2023-02-23T12:02:56.858Z,6.70
2023-02-23T12:04:01.150Z,6.80
2023-02-23T12:05:10.463Z,6.80
2023-02-23T12:06:13.189Z,6.90
2023-02-23T12:07:39.026Z,6.90
2023-02-23T12:08:48.874Z,6.80
2023-02-23T12:10:03.548Z,6.70
2023-02-23T12:11:14.528Z,6.70
2023-02-23T12:12:22.151Z,6.70
2023-02-23T12:13:40.160Z,6.60
2023-02-23T12:14:52.214Z,6.60
2023-02-23T12:16:02.637Z,6.50
2023-02-23T12:17:14.438Z,6.50
2023-02-23T12:18:39.491Z,6.60
2023-02-23T12:19:48.318Z,6.60
2023-02-23T12:20:55.848Z,6.70
2023-02-23T12:22:07.437Z,6.60
2023-02-23T12:23:15.469Z,6.60
2023-02-23T12:24:29.924Z,6.60
2023-02-23T12:25:41.586Z,6.60
2023-02-23T12:26:51.632Z,6.80
2023-02-23T12:28:17.865Z,6.80
2023-02-23T12:29:31.177Z,6.80
2023-02-23T12:30:44.916Z,6.80
2023-02-23T12:31:55.204Z,6.90
2023-02-23T12:33:05.114Z,6.90
2023-02-23T12:34:19.797Z,6.80
2023-02-23T12:35:31.004Z,6.80
2023-02-23T12:36:41.285Z,6.70
2023-02-23T12:37:51.622Z,6.80
2023-02-23T12:39:00.816Z,6.90
2023-02-23T12:40:24.741Z,7.00
2023-02-23T12:41:36.314Z,7.10
2023-02-23T12:42:46.884Z,7.10
2023-02-23T12:43:56.830Z,7.10
2023-02-23T12:45:06.655Z,7.20
2023-02-23T12:46:20.928Z,7.20
2023-02-23T12:47:35.870Z,7.10
2023-02-23T12:48:52.220Z,7.20
2023-02-23T12:50:07.628Z,7.20
2023-02-23T12:51:22.554Z,7.10
2023-02-23T12:52:33.105Z,7.00
2023-02-23T12:53:40.889Z,6.90
2023-02-23T12:54:47.338Z,6.80
2023-02-23T12:56:12.772Z,6.70
2023-02-23T12:57:29.021Z,6.70
2023-02-23T12:58:46.393Z,6.80
2023-02-23T13:00:31.848Z,6.60
2023-02-23T13:01:40.654Z,6.50
2023-02-23T13:02:50.437Z,6.40
2023-02-23T13:04:28.352Z,6.40
2023-02-23T13:05:39.701Z,6.40
2023-02-23T13:06:59.286Z,6.40
2023-02-23T13:08:22.450Z,6.30
2023-02-23T13:09:44.403Z,6.40
2023-02-23T13:10:56.713Z,6.40
2023-02-23T13:12:18.731Z,6.30
2023-02-23T13:13:33.911Z,6.40
2023-02-23T13:14:48.703Z,6.30
2023-02-23T13:16:02.690Z,6.30
2023-02-23T13:17:22.291Z,6.30
2023-02-23T13:18:32.929Z,6.30
2023-02-23T13:19:43.789Z,6.30
2023-02-23T13:20:55.563Z,6.40
2023-02-23T13:22:08.766Z,6.40
2023-02-23T13:23:23.463Z,6.40
2023-02-23T13:24:36.147Z,6.50
2023-02-23T13:25:52.302Z,6.50
2023-02-23T13:27:02.089Z,6.50
2023-02-23T13:28:15.642Z,6.50
2023-02-23T13:29:34.572Z,6.50
2023-02-23T13:30:42.647Z,6.40
2023-02-23T13:31:47.507Z,6.40
2023-02-23T13:32:51.255Z,6.40
2023-02-23T13:33:59.075Z,6.30
2023-02-23T13:35:05.054Z,6.30
2023-02-23T13:36:13.013Z,6.40
2023-02-23T13:37:27.596Z,6.30
2023-02-23T13:38:44.354Z,6.40
2023-02-23T13:40:00.955Z,6.40
2023-02-23T13:41:14.826Z,6.40
2023-02-23T13:42:49.707Z,6.40
2023-02-23T13:44:02.496Z,6.40
2023-02-23T13:45:28.812Z,6.40
2023-02-23T13:46:47.496Z,6.40
2023-02-23T13:47:58.499Z,6.50
2023-02-23T13:49:11.552Z,6.60
2023-02-23T13:50:24.160Z,6.70
2023-02-23T13:51:38.808Z,6.70
2023-02-23T13:52:44.051Z,6.70
2023-02-23T13:54:00.002Z,6.60
2023-02-23T13:55:04.478Z,6.60
2023-02-23T13:56:12.607Z,6.50
2023-02-23T13:57:17.449Z,6.50
2023-02-23T13:58:31.479Z,6.50
2023-02-23T13:59:44.026Z,6.50
2023-02-23T14:01:04.448Z,6.60
2023-02-23T14:02:33.323Z,6.60
2023-02-23T14:03:48.392Z,6.50
2023-02-23T14:04:52.743Z,6.60
2023-02-23T14:06:01.441Z,6.50
2023-02-23T14:07:23.024Z,6.60
2023-02-23T14:08:32.992Z,6.60
2023-02-23T14:09:43.041Z,6.60
2023-02-23T14:10:46.033Z,6.60
2023-02-23T14:11:53.781Z,6.60
2023-02-23T14:13:26.396Z,6.60
2023-02-23T14:14:44.943Z,6.60
2023-02-23T14:15:53.741Z,6.60
2023-02-23T14:17:40.992Z,6.60
2023-02-23T14:19:11.616Z,6.60
2023-02-23T14:20:30.023Z,6.60
2023-02-23T14:21:39.313Z,6.60
2023-02-23T14:23:28.031Z,6.60
2023-02-23T14:24:31.946Z,6.60
2023-02-23T14:25:47.304Z,6.60
2023-02-23T14:27:38.627Z,6.50
2023-02-23T14:28:46.242Z,6.50
2023-02-23T14:30:21.048Z,6.60
2023-02-23T14:31:26.262Z,6.60
2023-02-23T14:32:32.478Z,6.60
2023-02-23T14:33:47.293Z,6.70
2023-02-23T14:34:54.189Z,6.80
2023-02-23T14:35:57.727Z,6.90
2023-02-23T14:37:18.634Z,6.80
2023-02-23T14:38:47.152Z,6.60
2023-02-23T14:39:54.404Z,6.60
2023-02-23T14:40:57.322Z,6.60
2023-02-23T14:42:09.793Z,6.60
2023-02-23T14:43:49.544Z,6.60
2023-02-23T14:44:54.948Z,6.70
2023-02-23T14:45:59.198Z,6.70
2023-02-23T14:47:08.610Z,6.80
2023-02-23T14:48:15.870Z,6.80
2023-02-23T14:49:22.592Z,6.90
2023-02-23T14:50:29.987Z,7.00
2023-02-23T14:51:42.429Z,7.00
2023-02-23T14:52:47.663Z,6.90
2023-02-23T14:53:54.169Z,6.80
2023-02-23T14:55:17.862Z,6.80
2023-02-23T14:56:28.087Z,6.80
2023-02-23T14:57:39.564Z,6.80
2023-02-23T14:58:43.128Z,6.80
2023-02-23T14:59:53.225Z,6.80
2023-02-23T15:00:56.298Z,6.80
2023-02-23T15:02:02.650Z,6.90
2023-02-23T15:03:11.994Z,6.90
2023-02-23T15:04:18.526Z,6.80
2023-02-23T15:05:26.122Z,6.80
2023-02-23T15:06:29.032Z,6.80
2023-02-23T15:07:38.109Z,6.70
2023-02-23T15:08:45.904Z,6.70
2023-02-23T15:09:52.568Z,6.70
2023-02-23T15:11:04.537Z,6.70
2023-02-23T15:12:17.190Z,6.60
2023-02-23T15:13:29.952Z,6.60
2023-02-23T15:14:39.356Z,6.50
2023-02-23T15:15:46.510Z,6.50
2023-02-23T15:16:51.058Z,6.50
2023-02-23T15:18:01.237Z,6.60
2023-02-23T15:19:07.627Z,6.60
2023-02-23T15:20:18.169Z,6.70
2023-02-23T15:21:23.753Z,6.70
2023-02-23T15:22:32.045Z,6.70
2023-02-23T15:23:38.353Z,6.80
2023-02-23T15:24:45.197Z,6.70
2023-02-23T15:25:51.391Z,6.80